createdAt,value
2023-01-01T00:01:40.241Z,98222.28
2023-01-01T00:04:11.836Z,98226.91
2023-01-01T00:06:38.432Z,98220.59
2023-01-01T00:09:23.856Z,98214.66
2023-01-01T00:11:50.365Z,98224.97
2023-01-01T00:14:16.743Z,98205.41
2023-01-01T00:16:43.224Z,98219.66
2023-01-01T00:19:09.681Z,98210.19
2023-01-01T00:21:36.203Z,98212.53
2023-01-01T00:24:02.771Z,98206.84
2023-01-01T00:26:34.630Z,98202.47
2023-01-01T00:29:01.968Z,98216.59
2023-01-01T00:31:28.528Z,98221.47
2023-01-01T00:33:56.047Z,98221.13
2023-01-01T00:36:24.991Z,98221.94
2023-01-01T00:38:51.560Z,98228.47
2023-01-01T00:41:18.704Z,98222.56
2023-01-01T00:43:45.424Z,98215.56
2023-01-01T00:46:12.664Z,98214.28
2023-01-01T00:48:39.663Z,98211.88
2023-01-01T00:51:06.324Z,98211.22
2023-01-01T00:53:32.958Z,98202.97
2023-01-01T00:55:59.420Z,98217.78
2023-01-01T00:58:26.069Z,98207.66
2023-01-01T01:00:53.196Z,98203.09
2023-01-01T01:03:28.706Z,98195.81
2023-01-01T01:06:04.060Z,98204.88
2023-01-01T01:08:32.466Z,98206.84
2023-01-01T01:11:11.197Z,98210.22
2023-01-01T01:13:39.004Z,98206.16
2023-01-01T01:16:17.375Z,98218.94
2023-01-01T01:18:44.237Z,98215.78
2023-01-01T01:21:14.527Z,98203.28
2023-01-01T01:23:41.011Z,98205.06
2023-01-01T01:26:08.582Z,98212.44
2023-01-01T01:28:35.007Z,98210.91
2023-01-01T01:31:01.422Z,98196.44
2023-01-01T01:33:27.913Z,98218.03
2023-01-01T01:35:54.323Z,98216.28
2023-01-01T01:38:20.813Z,98197.91
2023-01-01T01:40:47.221Z,98209.63
2023-01-01T01:43:23.167Z,98212.53
2023-01-01T01:45:50.028Z,98199.44
2023-01-01T01:48:16.739Z,98209.44
2023-01-01T01:50:47.948Z,98212.22
2023-01-01T01:53:23.893Z,98227.31
2023-01-01T01:55:59.211Z,98223.97
2023-01-01T01:58:27.521Z,98221.63
2023-01-01T02:00:55.846Z,98224.22
2023-01-01T02:03:32.162Z,98229.75
2023-01-01T02:05:59.092Z,98236.22
2023-01-01T02:08:26.150Z,98239.13
2023-01-01T02:10:52.597Z,98234.94
2023-01-01T02:13:19.212Z,98235.50
2023-01-01T02:15:56.865Z,98220.72
2023-01-01T02:18:29.003Z,98226.28
2023-01-01T02:21:17.706Z,98242.50
2023-01-01T02:23:57.813Z,98252.59
2023-01-01T02:26:39.019Z,98248.31
2023-01-01T02:29:37.319Z,98240.59
2023-01-01T02:32:06.807Z,98244.34
2023-01-01T02:34:49.159Z,98240.75
2023-01-01T02:37:19.201Z,98241.59
2023-01-01T02:39:54.801Z,98235.66
2023-01-01T02:42:25.150Z,98243.13
2023-01-01T02:44:54.429Z,98243.59
2023-01-01T02:47:21.459Z,98244.81
2023-01-01T02:49:51.533Z,98247.28
2023-01-01T02:52:56.177Z,98249.09
2023-01-01T02:55:37.061Z,98241.94
2023-01-01T02:58:35.370Z,98246.72
2023-01-01T03:01:19.723Z,98245.75
2023-01-01T03:03:58.679Z,98242.97
2023-01-01T03:06:48.133Z,98240.00
2023-01-01T03:09:30.381Z,98247.28
2023-01-01T03:12:05.803Z,98247.66
2023-01-01T03:14:44.114Z,98226.06
2023-01-01T03:17:19.989Z,98241.69
2023-01-01T03:19:49.244Z,98229.19
2023-01-01T03:22:17.817Z,98235.66
2023-01-01T03:24:50.447Z,98247.19
2023-01-01T03:27:24.983Z,98246.84
2023-01-01T03:29:56.614Z,98248.81
2023-01-01T03:32:56.245Z,98264.44
2023-01-01T03:35:25.825Z,98243.25
2023-01-01T03:37:56.094Z,98254.78
2023-01-01T03:40:23.212Z,98263.53
2023-01-01T03:42:56.704Z,98257.22
2023-01-01T03:45:29.957Z,98244.63
2023-01-01T03:47:56.907Z,98253.28
2023-01-01T03:50:32.024Z,98250.03
2023-01-01T03:53:44.121Z,98246.78
2023-01-01T03:56:22.881Z,98255.28
2023-01-01T03:59:28.252Z,98251.88
2023-01-01T04:01:58.533Z,98258.41
2023-01-01T04:04:26.900Z,98230.06
2023-01-01T04:06:53.949Z,98251.06
2023-01-01T04:09:26.415Z,98254.66
2023-01-01T04:12:04.341Z,98265.00
2023-01-01T04:14:32.941Z,98256.31
2023-01-01T04:17:00.700Z,98258.06
2023-01-01T04:19:27.517Z,98267.44
2023-01-01T04:21:54.238Z,98271.66
2023-01-01T04:24:20.722Z,98274.19
2023-01-01T04:26:48.273Z,98273.75
2023-01-01T04:29:14.884Z,98279.38
2023-01-01T04:31:41.276Z,98277.16
2023-01-01T04:34:08.320Z,98276.22
2023-01-01T04:36:35.431Z,98286.56
2023-01-01T04:39:03.093Z,98289.34
2023-01-01T04:41:30.428Z,98284.25
2023-01-01T04:43:57.003Z,98289.47
2023-01-01T04:46:24.283Z,98292.28
2023-01-01T04:48:50.729Z,98301.91
2023-01-01T04:51:19.062Z,98296.81
2023-01-01T04:53:45.612Z,98301.34
2023-01-01T04:56:18.490Z,98303.56
2023-01-01T04:58:45.956Z,98302.28
2023-01-01T05:01:31.121Z,98301.25
2023-01-01T05:03:59.027Z,98303.56
2023-01-01T05:06:26.219Z,98309.50
2023-01-01T05:08:54.889Z,98318.34
2023-01-01T05:11:24.788Z,98319.66
2023-01-01T05:13:52.881Z,98312.91
2023-01-01T05:16:21.484Z,98312.75
2023-01-01T05:18:48.585Z,98326.38
2023-01-01T05:21:23.723Z,98323.34
2023-01-01T05:23:54.745Z,98335.91
2023-01-01T05:26:23.702Z,98336.88
2023-01-01T05:28:50.987Z,98333.59
2023-01-01T05:31:19.664Z,98336.25
2023-01-01T05:33:46.676Z,98333.72
2023-01-01T05:36:22.373Z,98347.56
2023-01-01T05:38:49.444Z,98338.94
2023-01-01T05:41:17.877Z,98344.66
2023-01-01T05:43:44.791Z,98359.66
2023-01-01T05:46:22.920Z,98343.13
2023-01-01T05:48:49.864Z,98354.19
2023-01-01T05:51:18.870Z,98349.19
2023-01-01T05:53:45.628Z,98341.75
2023-01-01T05:56:13.454Z,98341.19
2023-01-01T05:58:40.600Z,98355.25
2023-01-01T06:01:14.215Z,98350.47
2023-01-01T06:03:41.726Z,98345.25
2023-01-01T06:06:11.257Z,98354.41
2023-01-01T06:08:38.676Z,98356.53
2023-01-01T06:11:07.921Z,98368.03
2023-01-01T06:13:34.735Z,98373.47
2023-01-01T06:16:02.695Z,98375.44
2023-01-01T06:18:31.176Z,98381.41
2023-01-01T06:21:13.671Z,98373.25
2023-01-01T06:23:40.916Z,98377.56
2023-01-01T06:26:13.227Z,98386.16
2023-01-01T06:28:40.321Z,98374.28
2023-01-01T06:31:08.725Z,98375.94
2023-01-01T06:33:36.275Z,98373.47
2023-01-01T06:36:05.474Z,98380.91
2023-01-01T06:38:33.501Z,98387.19
2023-01-01T06:41:02.537Z,98396.81
2023-01-01T06:43:31.206Z,98386.84
2023-01-01T06:46:22.706Z,98395.81
2023-01-01T06:48:53.985Z,98396.25
2023-01-01T06:51:22.819Z,98402.50
2023-01-01T06:53:51.046Z,98395.63
2023-01-01T06:56:18.842Z,98383.50
2023-01-01T06:58:45.469Z,98400.41
2023-01-01T07:01:15.751Z,98380.28
2023-01-01T07:03:44.979Z,98387.72
2023-01-01T07:06:11.474Z,98393.50
2023-01-01T07:08:38.020Z,98394.59
2023-01-01T07:11:05.205Z,98408.72
2023-01-01T07:13:31.700Z,98410.03
2023-01-01T07:15:59.841Z,98422.94
2023-01-01T07:18:26.382Z,98413.78
2023-01-01T07:20:55.767Z,98417.81
2023-01-01T07:23:22.634Z,98413.88
2023-01-01T07:25:50.542Z,98436.41
2023-01-01T07:28:16.962Z,98430.34
2023-01-01T07:30:43.482Z,98431.44
2023-01-01T07:33:14.648Z,98446.09
2023-01-01T07:35:41.577Z,98440.03
2023-01-01T07:38:08.226Z,98452.03
2023-01-01T07:40:34.657Z,98455.47
2023-01-01T07:43:01.077Z,98442.56
2023-01-01T07:45:27.863Z,98450.28
2023-01-01T07:47:56.185Z,98439.22
2023-01-01T07:50:24.726Z,98463.00
2023-01-01T07:52:51.265Z,98449.63
2023-01-01T07:55:19.768Z,98454.88
2023-01-01T07:57:48.432Z,98459.69
2023-01-01T08:00:18.624Z,98467.47
2023-01-01T08:02:46.011Z,98461.75
2023-01-01T08:05:12.620Z,98468.22
2023-01-01T08:07:39.179Z,98474.63
2023-01-01T08:10:07.200Z,98472.53
2023-01-01T08:12:33.984Z,98463.25
2023-01-01T08:15:00.414Z,98463.28
2023-01-01T08:17:26.896Z,98469.94
2023-01-01T08:19:53.288Z,98469.94
2023-01-01T08:22:19.959Z,98464.56
2023-01-01T08:24:46.367Z,98467.28
2023-01-01T08:27:17.089Z,98463.31
2023-01-01T08:29:44.787Z,98471.91
2023-01-01T08:32:12.341Z,98478.19
2023-01-01T08:34:38.860Z,98472.72
2023-01-01T08:37:05.740Z,98471.81
2023-01-01T08:39:32.317Z,98473.31
2023-01-01T08:41:58.735Z,98477.53
2023-01-01T08:44:25.177Z,98470.50
2023-01-01T08:46:54.423Z,98473.56
2023-01-01T08:49:20.894Z,98484.72
2023-01-01T08:51:47.333Z,98485.09
2023-01-01T08:54:13.758Z,98471.59
2023-01-01T08:56:40.188Z,98494.50
2023-01-01T08:59:06.669Z,98491.25
2023-01-01T09:01:33.306Z,98490.19
2023-01-01T09:03:59.875Z,98495.25
2023-01-01T09:06:26.279Z,98503.38
2023-01-01T09:08:52.706Z,98488.31
2023-01-01T09:11:26.693Z,98503.69
2023-01-01T09:13:53.915Z,98501.63
2023-01-01T09:16:21.614Z,98513.94
2023-01-01T09:18:48.117Z,98517.19
2023-01-01T09:21:14.589Z,98520.91
2023-01-01T09:23:41.164Z,98523.38
2023-01-01T09:26:10.186Z,98525.84
2023-01-01T09:28:37.754Z,98517.53
2023-01-01T09:31:08.576Z,98519.28
2023-01-01T09:33:35.150Z,98516.81
2023-01-01T09:36:20.203Z,98512.91
2023-01-01T09:39:11.657Z,98525.25
2023-01-01T09:41:44.049Z,98535.31
2023-01-01T09:45:02.045Z,98500.94
2023-01-01T09:47:59.682Z,98528.59
2023-01-01T09:50:40.492Z,98501.94
2023-01-01T09:53:21.320Z,98537.97
2023-01-01T09:55:53.107Z,98536.66
2023-01-01T09:58:24.731Z,98531.31
2023-01-01T10:00:54.979Z,98537.00
2023-01-01T10:03:30.750Z,98528.59
2023-01-01T10:06:02.827Z,98529.66
2023-01-01T10:09:04.940Z,98536.97
2023-01-01T10:12:11.676Z,98530.66
2023-01-01T10:14:48.706Z,98517.97
2023-01-01T10:17:48.030Z,98525.63
2023-01-01T10:20:17.501Z,98512.03
2023-01-01T10:22:49.589Z,98504.50
2023-01-01T10:25:20.807Z,98509.38
2023-01-01T10:28:04.745Z,98515.94
2023-01-01T10:30:31.599Z,98503.63
2023-01-01T10:32:58.784Z,98511.47
2023-01-01T10:35:39.346Z,98510.41
2023-01-01T10:38:06.217Z,98505.91
2023-01-01T10:40:33.725Z,98501.84
2023-01-01T10:43:02.620Z,98501.69
2023-01-01T10:45:40.286Z,98511.75
2023-01-01T10:48:16.181Z,98512.50
2023-01-01T10:50:52.118Z,98524.16
2023-01-01T10:53:25.178Z,98525.06
2023-01-01T10:56:00.422Z,98525.47
2023-01-01T10:58:39.400Z,98524.66
2023-01-01T11:01:11.558Z,98525.63
2023-01-01T11:03:52.471Z,98515.44
2023-01-01T11:06:39.836Z,98524.88
2023-01-01T11:09:18.813Z,98529.78
2023-01-01T11:11:48.119Z,98523.75
2023-01-01T11:14:27.514Z,98510.25
2023-01-01T11:16:55.775Z,98500.94
2023-01-01T11:19:37.466Z,98499.50
2023-01-01T11:22:05.350Z,98500.47
2023-01-01T11:24:34.322Z,98492.22
2023-01-01T11:27:23.388Z,98484.66
2023-01-01T11:29:51.421Z,98483.22
2023-01-01T11:32:34.835Z,98482.41
2023-01-01T11:35:06.325Z,98486.94
2023-01-01T11:37:36.124Z,98468.66
2023-01-01T11:40:04.493Z,98465.09
2023-01-01T11:42:34.157Z,98468.25
2023-01-01T11:45:03.456Z,98457.69
2023-01-01T11:47:40.595Z,98460.13
2023-01-01T11:50:36.384Z,98458.63
2023-01-01T11:53:24.861Z,98465.50
2023-01-01T11:56:03.289Z,98458.00
2023-01-01T11:58:37.664Z,98463.06
2023-01-01T12:01:13.160Z,98464.94
2023-01-01T12:03:44.986Z,98455.25
2023-01-01T12:06:29.858Z,98460.69
2023-01-01T12:09:18.635Z,98455.94
2023-01-01T12:11:52.930Z,98455.25
2023-01-01T12:14:51.592Z,98463.78
2023-01-01T12:17:20.357Z,98465.19
2023-01-01T12:20:09.983Z,98458.16
2023-01-01T12:22:36.554Z,98455.41
2023-01-01T12:25:05.099Z,98461.09
2023-01-01T12:27:50.589Z,98459.00
2023-01-01T12:30:23.823Z,98460.50
2023-01-01T12:33:05.679Z,98465.19
2023-01-01T12:35:50.869Z,98456.88
2023-01-01T12:38:30.419Z,98455.25
2023-01-01T12:41:04.868Z,98454.59
2023-01-01T12:43:51.749Z,98459.28
2023-01-01T12:46:37.958Z,98452.38
2023-01-01T12:49:25.143Z,98452.28
2023-01-01T12:52:14.762Z,98448.56
2023-01-01T12:54:56.157Z,98455.78
2023-01-01T12:57:40.030Z,98441.25
2023-01-01T13:00:28.414Z,98450.66
2023-01-01T13:03:03.641Z,98448.81
2023-01-01T13:05:43.820Z,98441.09
2023-01-01T13:08:10.289Z,98446.44
2023-01-01T13:10:40.369Z,98443.84
2023-01-01T13:13:07.189Z,98450.28
2023-01-01T13:15:43.301Z,98452.97
2023-01-01T13:18:15.605Z,98447.59
2023-01-01T13:20:45.652Z,98451.34
2023-01-01T13:23:31.182Z,98443.84
2023-01-01T13:26:26.587Z,98444.31
2023-01-01T13:28:55.949Z,98440.59
2023-01-01T13:32:01.608Z,98438.19
2023-01-01T13:34:30.910Z,98425.00
2023-01-01T13:37:13.753Z,98431.81
2023-01-01T13:40:01.480Z,98422.22
2023-01-01T13:43:06.252Z,98423.03
2023-01-01T13:46:10.541Z,98428.56
2023-01-01T13:48:59.348Z,98413.75
2023-01-01T13:52:04.634Z,98424.50
2023-01-01T13:54:54.602Z,98422.56
2023-01-01T13:57:27.258Z,98422.72
2023-01-01T14:00:19.905Z,98421.81
2023-01-01T14:02:53.115Z,98420.31
2023-01-01T14:05:42.279Z,98419.00
2023-01-01T14:08:28.483Z,98421.31
2023-01-01T14:10:54.881Z,98418.03
2023-01-01T14:13:29.805Z,98423.75
2023-01-01T14:16:07.780Z,98439.84
2023-01-01T14:18:41.995Z,98430.75
2023-01-01T14:21:14.663Z,98433.19
2023-01-01T14:23:48.848Z,98434.63
2023-01-01T14:26:20.110Z,98428.16
2023-01-01T14:28:47.382Z,98432.41
2023-01-01T14:31:17.439Z,98434.06
2023-01-01T14:33:44.806Z,98440.00
2023-01-01T14:36:37.265Z,98438.28
2023-01-01T14:39:03.675Z,98434.63
2023-01-01T14:41:35.848Z,98426.84
2023-01-01T14:44:13.771Z,98421.84
2023-01-01T14:46:43.684Z,98419.28
2023-01-01T14:49:16.181Z,98409.53
2023-01-01T14:51:46.988Z,98422.63
2023-01-01T14:54:21.300Z,98415.66
2023-01-01T14:56:51.146Z,98414.28
2023-01-01T14:59:23.814Z,98409.13
2023-01-01T15:02:12.276Z,98418.25
2023-01-01T15:04:39.256Z,98421.03
2023-01-01T15:07:05.684Z,98419.41
2023-01-01T15:09:33.008Z,98418.94
2023-01-01T15:12:00.117Z,98404.75
2023-01-01T15:14:35.851Z,98405.88
2023-01-01T15:17:03.627Z,98401.69
2023-01-01T15:19:30.374Z,98398.00
2023-01-01T15:21:57.681Z,98395.50
2023-01-01T15:24:27.312Z,98391.94
2023-01-01T15:26:56.123Z,98390.97
2023-01-01T15:29:31.675Z,98396.44
2023-01-01T15:32:03.557Z,98398.09
2023-01-01T15:34:47.986Z,98396.19
2023-01-01T15:37:19.733Z,98389.22
2023-01-01T15:39:55.905Z,98382.09
2023-01-01T15:42:48.694Z,98394.25
2023-01-01T15:45:36.045Z,98389.34
2023-01-01T15:48:05.508Z,98390.28
2023-01-01T15:50:35.968Z,98394.00
2023-01-01T15:53:15.031Z,98399.97
2023-01-01T15:55:49.667Z,98399.66
2023-01-01T15:58:46.141Z,98403.50
2023-01-01T16:01:18.740Z,98398.59
2023-01-01T16:03:47.056Z,98397.44
2023-01-01T16:06:18.452Z,98394.41
2023-01-01T16:08:44.911Z,98395.47
2023-01-01T16:11:11.361Z,98392.47
2023-01-01T16:13:37.802Z,98394.19
2023-01-01T16:16:04.561Z,98391.75
2023-01-01T16:18:34.251Z,98380.00
2023-01-01T16:21:01.645Z,98376.75
2023-01-01T16:23:28.104Z,98378.25
2023-01-01T16:25:54.711Z,98372.44
2023-01-01T16:28:21.172Z,98371.06
2023-01-01T16:30:47.706Z,98373.72
2023-01-01T16:33:17.316Z,98360.81
2023-01-01T16:35:44.622Z,98361.06
2023-01-01T16:38:11.101Z,98348.03
2023-01-01T16:40:38.364Z,98358.84
2023-01-01T16:43:09.242Z,98352.31
2023-01-01T16:45:36.034Z,98351.88
2023-01-01T16:48:02.477Z,98343.13
2023-01-01T16:50:28.944Z,98342.09
2023-01-01T16:52:55.347Z,98341.16
2023-01-01T16:55:22.127Z,98330.91
2023-01-01T16:57:48.631Z,98327.91
2023-01-01T17:00:15.665Z,98323.81
2023-01-01T17:02:42.688Z,98321.94
2023-01-01T17:05:10.451Z,98323.09
2023-01-01T17:07:36.943Z,98320.56
2023-01-01T17:10:04.328Z,98310.75
2023-01-01T17:12:31.477Z,98319.94
2023-01-01T17:15:05.116Z,98321.13
2023-01-01T17:17:31.539Z,98323.31
2023-01-01T17:19:58.012Z,98321.47
2023-01-01T17:22:27.920Z,98323.44
2023-01-01T17:24:57.152Z,98324.38
2023-01-01T17:27:23.554Z,98317.19
2023-01-01T17:29:51.320Z,98322.16
2023-01-01T17:32:17.738Z,98327.84
2023-01-01T17:34:44.161Z,98310.41
2023-01-01T17:37:10.551Z,98317.50
2023-01-01T17:39:36.948Z,98318.22
2023-01-01T17:42:03.429Z,98317.16
2023-01-01T17:44:29.924Z,98312.38
2023-01-01T17:46:56.392Z,98303.78
2023-01-01T17:49:22.822Z,98307.16
2023-01-01T17:51:49.402Z,98302.00
2023-01-01T17:54:15.874Z,98300.63
2023-01-01T17:56:42.650Z,98287.50
2023-01-01T17:59:10.043Z,98271.91
2023-01-01T18:01:36.613Z,98263.53
2023-01-01T18:04:06.505Z,98268.41
2023-01-01T18:06:40.293Z,98264.00
2023-01-01T18:09:11.595Z,98279.22
2023-01-01T18:11:38.401Z,98276.19
2023-01-01T18:14:05.154Z,98279.69
2023-01-01T18:16:33.275Z,98284.44
2023-01-01T18:19:01.293Z,98276.31
2023-01-01T18:21:28.054Z,98276.09
2023-01-01T18:23:56.559Z,98287.03
2023-01-01T18:26:26.668Z,98275.41
2023-01-01T18:29:11.473Z,98275.28
2023-01-01T18:31:39.061Z,98262.19
2023-01-01T18:34:06.752Z,98253.53
2023-01-01T18:36:34.744Z,98249.84
2023-01-01T18:39:23.022Z,98243.22
2023-01-01T18:41:49.454Z,98242.72
2023-01-01T18:44:19.109Z,98236.44
2023-01-01T18:46:49.831Z,98234.69
2023-01-01T18:49:16.400Z,98244.44
2023-01-01T18:51:42.823Z,98231.91
2023-01-01T18:54:16.555Z,98235.84
2023-01-01T18:56:43.052Z,98234.50
2023-01-01T18:59:19.537Z,98227.53
2023-01-01T19:01:46.287Z,98239.63
2023-01-01T19:04:12.857Z,98233.81
2023-01-01T19:06:39.493Z,98230.78
2023-01-01T19:09:19.971Z,98244.75
2023-01-01T19:11:51.661Z,98246.03
2023-01-01T19:14:23.327Z,98241.59
2023-01-01T19:16:54.867Z,98236.25
2023-01-01T19:19:26.015Z,98230.31
2023-01-01T19:22:02.003Z,98225.09
2023-01-01T19:24:31.286Z,98231.34
2023-01-01T19:27:17.997Z,98228.78
2023-01-01T19:29:46.201Z,98231.44
2023-01-01T19:32:12.876Z,98224.03
2023-01-01T19:34:39.792Z,98223.44
2023-01-01T19:37:07.718Z,98229.13
2023-01-01T19:39:35.086Z,98229.38
2023-01-01T19:42:06.977Z,98226.69
2023-01-01T19:44:35.101Z,98228.16
2023-01-01T19:47:04.177Z,98227.72
2023-01-01T19:49:31.243Z,98223.56
2023-01-01T19:51:57.694Z,98226.13
2023-01-01T19:54:24.211Z,98225.16
2023-01-01T19:56:50.735Z,98216.78
2023-01-01T19:59:18.044Z,98216.34
2023-01-01T20:01:44.540Z,98213.41
2023-01-01T20:04:11.167Z,98209.91
2023-01-01T20:06:37.831Z,98205.13
2023-01-01T20:09:04.601Z,98207.69
2023-01-01T20:11:31.968Z,98195.47
2023-01-01T20:13:58.660Z,98201.09
2023-01-01T20:16:25.095Z,98200.59
2023-01-01T20:18:51.529Z,98206.25
2023-01-01T20:21:36.392Z,98206.81
2023-01-01T20:24:03.047Z,98199.97
2023-01-01T20:26:29.612Z,98167.13
2023-01-01T20:29:14.807Z,98203.41
2023-01-01T20:31:41.846Z,98200.59
2023-01-01T20:34:08.542Z,98192.47
2023-01-01T20:36:53.484Z,98191.03
2023-01-01T20:39:21.358Z,98199.28
2023-01-01T20:41:48.540Z,98200.00
2023-01-01T20:44:15.003Z,98203.41
2023-01-01T20:46:42.334Z,98184.13
2023-01-01T20:49:09.052Z,98202.53
2023-01-01T20:51:35.565Z,98201.34
2023-01-01T20:54:02.272Z,98213.81
2023-01-01T20:56:29.674Z,98206.38
2023-01-01T20:59:01.952Z,98207.69
2023-01-01T21:01:34.428Z,98217.63
2023-01-01T21:04:01.015Z,98210.94
2023-01-01T21:06:27.493Z,98217.19
2023-01-01T21:08:55.136Z,98216.97
2023-01-01T21:11:21.608Z,98214.09
2023-01-01T21:13:48.915Z,98217.28
2023-01-01T21:16:22.437Z,98220.53
2023-01-01T21:18:49.334Z,98205.13
2023-01-01T21:21:26.941Z,98214.28
2023-01-01T21:23:57.473Z,98226.94
2023-01-01T21:26:31.076Z,98212.69
2023-01-01T21:29:02.261Z,98191.06
2023-01-01T21:31:37.782Z,98213.38
2023-01-01T21:34:24.388Z,98208.97
2023-01-01T21:36:51.076Z,98212.56
2023-01-01T21:39:23.565Z,98204.78
2023-01-01T21:41:50.627Z,98205.03
2023-01-01T21:44:17.074Z,98209.66
2023-01-01T21:46:53.278Z,98214.75
2023-01-01T21:49:35.473Z,98199.03
2023-01-01T21:52:02.830Z,98200.19
2023-01-01T21:54:34.666Z,98195.03
2023-01-01T21:57:13.498Z,98189.53
2023-01-01T21:59:42.490Z,98193.84
2023-01-01T22:02:09.020Z,98199.66
2023-01-01T22:04:47.112Z,98188.34
2023-01-01T22:10:29.239Z,98185.84
2023-01-01T22:13:00.622Z,98193.50
2023-01-01T22:15:27.347Z,98196.34
2023-01-01T22:18:09.103Z,98195.97
2023-01-01T22:20:38.268Z,98196.53
2023-01-01T22:23:36.556Z,98199.69
2023-01-01T22:26:11.794Z,98196.94
2023-01-01T22:28:42.794Z,98201.50
2023-01-01T22:31:16.708Z,98205.31
2023-01-01T22:33:46.156Z,98202.28
2023-01-01T22:36:17.657Z,98196.81
2023-01-01T22:38:44.293Z,98194.44
2023-01-01T22:41:11.847Z,98195.03
2023-01-01T22:43:41.535Z,98192.09
2023-01-01T22:46:18.737Z,98179.28
2023-01-01T22:48:45.192Z,98191.94
2023-01-01T22:51:18.382Z,98194.41
2023-01-01T22:53:44.963Z,98193.81
2023-01-01T22:56:11.402Z,98195.06
2023-01-01T22:58:37.868Z,98197.00
2023-01-01T23:01:04.495Z,98204.50
2023-01-01T23:03:31.028Z,98212.28
2023-01-01T23:05:58.561Z,98208.28
2023-01-01T23:08:25.832Z,98204.31
2023-01-01T23:10:53.358Z,98211.78
2023-01-01T23:13:38.599Z,98212.06
2023-01-01T23:16:05.176Z,98204.66
2023-01-01T23:18:34.465Z,98209.44
2023-01-01T23:21:03.748Z,98213.25
2023-01-01T23:23:31.493Z,98201.25
2023-01-01T23:25:58.952Z,98200.34
2023-01-01T23:28:28.467Z,98213.69
2023-01-01T23:30:55.888Z,98209.84
2023-01-01T23:33:22.423Z,98199.13
2023-01-01T23:35:49.663Z,98192.78
2023-01-01T23:38:16.436Z,98195.97
2023-01-01T23:40:42.967Z,98186.94
2023-01-01T23:43:09.370Z,98174.38
2023-01-01T23:45:37.108Z,98161.72
2023-01-01T23:48:04.731Z,98135.06
2023-01-01T23:50:32.528Z,98164.22
2023-01-01T23:52:59.412Z,98163.09
2023-01-01T23:55:25.844Z,98170.66
2023-01-01T23:57:52.288Z,98167.16
